Matteo Cremona.it - Pannello delle statistiche

Statistiche generali

Utenti in totale:
3955
Post in totale:
22782
Topic in totale:
21276
Categorie in totale:
3
Utenti online:
46
Maggior numero di utenti online:
144 - Ottobre 08, 2017, 10:23:49 am
Presenti oggi:
96
Media delle iscrizioni per giorno:
2.50
Media dei messaggi per giorno:
14.37
Media delle discussioni per giorno:
13.42
Sezioni totali:
7
Ultimo utente:
DanielTrak
Media delle presenze per giorno:
5.65
Rapporto maschi/femmine:
1:0

I 10 autori pił attivi

Migliori autori (per numero di topic iniziati)

Maggior tempo trascorso online

Matteo Cremona
9ore15minuti
GeorgeHarreuts
8ore28minuti
WilieTiz
4ore32minuti
RogerHix
1ore37minuti
FlorineVal
50minuti
PompeyMagni
11minuti
EugeneGlou
8minuti
DorseyHok
5minuti
momo
5minuti
SalinaQ341
5minuti

Cronologia forum (sulla base del fuso orario del server)

Sommario annuale Nuovi topic Nuovi post Nuovi iscritti Maggior numero di utenti online
* 2017 20722 22228 3939 144
Ottobre 2017 14500 15131 2477 144
Settembre 2017 4884 5086 373 70
2017-09-01 4 4 2 26
2017-09-02 37 37 1 28
2017-09-03 89 89 0 34
2017-09-04 102 102 0 42
2017-09-05 125 126 1 51
2017-09-06 119 119 2 50
2017-09-07 67 67 3 36
2017-09-08 46 46 3 34
2017-09-09 54 54 0 46
2017-09-10 69 84 0 44
2017-09-11 20 41 27 58
2017-09-12 29 132 3 54
2017-09-13 259 321 5 41
2017-09-14 382 382 6 38
2017-09-15 271 271 0 42
2017-09-16 261 261 4 38
2017-09-17 246 246 4 34
2017-09-18 260 260 2 35
2017-09-19 259 259 4 43
2017-09-20 255 255 0 45
2017-09-21 243 243 2 38
2017-09-22 277 277 17 41
2017-09-23 204 204 24 46
2017-09-24 76 76 36 70
2017-09-25 185 185 72 60
2017-09-26 334 334 28 60
2017-09-27 334 334 3 70
2017-09-28 122 122 24 48
2017-09-29 23 23 77 39
2017-09-30 132 132 23 52
Agosto 2017 536 1209 318 66
Luglio 2017 570 570 575 46
Giugno 2017 5 5 99 29
Maggio 2017 18 18 47 48
Aprile 2017 12 12 14 14
Marzo 2017 1 1 17 19
2017-03-01 0 0 1 8
2017-03-02 0 0 0 11
2017-03-03 0 0 0 14
2017-03-04 0 0 2 8
2017-03-05 0 0 1 7
2017-03-06 0 0 0 10
2017-03-07 0 0 4 15
2017-03-08 0 0 0 6
2017-03-09 0 0 0 11
2017-03-10 0 0 1 12
2017-03-11 0 0 2 19
2017-03-12 0 0 0 7
2017-03-13 0 0 0 14
2017-03-14 0 0 2 15
2017-03-15 0 0 0 5
2017-03-16 0 0 0 5
2017-03-17 0 0 0 15
2017-03-18 0 0 0 8
2017-03-19 0 0 1 12
2017-03-20 0 0 0 9
2017-03-21 0 0 0 3
2017-03-22 0 0 0 8
2017-03-23 0 0 0 11
2017-03-24 0 0 0 6
2017-03-25 0 0 0 7
2017-03-26 1 1 1 8
2017-03-27 0 0 0 9
2017-03-28 0 0 1 10
2017-03-29 0 0 0 9
2017-03-30 0 0 0 12
2017-03-31 0 0 1 6
Febbraio 2017 116 116 7 14
2017-02-01 0 0 0 7
2017-02-02 0 0 0 2
2017-02-03 12 12 0 5
2017-02-04 0 0 0 5
2017-02-05 22 22 1 8
2017-02-06 14 14 1 9
2017-02-07 12 12 0 8
2017-02-08 24 24 0 14
2017-02-09 32 32 0 10
2017-02-10 0 0 0 5
2017-02-11 0 0 1 10
2017-02-12 0 0 0 10
2017-02-13 0 0 0 6
2017-02-14 0 0 0 4
2017-02-15 0 0 0 3
2017-02-16 0 0 0 7
2017-02-17 0 0 0 11
2017-02-18 0 0 0 3
2017-02-19 0 0 0 6
2017-02-20 0 0 0 3
2017-02-21 0 0 0 5
2017-02-22 0 0 0 4
2017-02-23 0 0 0 4
2017-02-24 0 0 0 9
2017-02-25 0 0 2 6
2017-02-26 0 0 0 9
2017-02-27 0 0 0 6
2017-02-28 0 0 2 6
Gennaio 2017 80 80 12 11
2017-01-01 0 0 0 3
2017-01-02 0 0 1 6
2017-01-03 0 0 0 5
2017-01-04 0 0 0 4
2017-01-05 0 0 0 2
2017-01-06 0 0 2 4
2017-01-07 0 0 1 8
2017-01-08 0 0 0 3
2017-01-09 0 0 1 3
2017-01-10 0 0 0 3
2017-01-11 0 0 0 3
2017-01-12 0 0 0 2
2017-01-13 0 0 0 3
2017-01-14 0 0 0 6
2017-01-15 0 0 0 4
2017-01-16 0 0 0 7
2017-01-17 0 0 0 10
2017-01-18 0 0 0 8
2017-01-19 0 0 2 7
2017-01-20 0 0 1 5
2017-01-21 0 0 2 4
2017-01-22 3 3 1 7
2017-01-23 5 5 0 4
2017-01-24 4 4 0 2
2017-01-25 0 0 0 3
2017-01-26 0 0 1 11
2017-01-27 0 0 0 6
2017-01-28 8 8 0 5
2017-01-29 1 1 0 2
2017-01-30 23 23 0 9
2017-01-31 36 36 0 9
* 2016 552 552 15 23
Dicembre 2016 125 125 8 23
Novembre 2016 267 267 0 9
2016-11-01 7 7 0 5
2016-11-02 10 10 0 5
2016-11-03 11 11 0 5
2016-11-04 9 9 0 4
2016-11-05 11 11 0 2
2016-11-06 10 10 0 2
2016-11-07 11 11 0 2
2016-11-08 9 9 0 3
2016-11-09 12 12 0 2
2016-11-10 5 5 0 2
2016-11-11 10 10 0 2
2016-11-12 13 13 0 9
2016-11-13 5 5 0 2
2016-11-14 11 11 0 2
2016-11-15 15 15 0 5
2016-11-16 11 11 0 4
2016-11-17 16 16 0 2
2016-11-18 12 12 0 3
2016-11-19 12 12 0 3
2016-11-20 4 4 0 2
2016-11-21 4 4 0 3
2016-11-22 15 15 0 5
2016-11-23 11 11 0 5
2016-11-24 12 12 0 4
2016-11-25 6 6 0 3
2016-11-26 2 2 0 3
2016-11-27 0 0 0 3
2016-11-28 0 0 0 4
2016-11-29 5 5 0 4
2016-11-30 8 8 0 6
Ottobre 2016 48 48 5 5
2016-10-02 0 0 0 1
2016-10-03 0 0 0 1
2016-10-04 0 0 1 2
2016-10-05 0 0 0 2
2016-10-06 0 0 0 1
2016-10-07 0 0 0 3
2016-10-08 0 0 1 4
2016-10-09 0 0 0 2
2016-10-10 0 0 1 2
2016-10-11 0 0 0 2
2016-10-12 0 0 0 1
2016-10-13 0 0 0 3
2016-10-14 0 0 0 1
2016-10-15 0 0 1 2
2016-10-16 0 0 0 1
2016-10-17 0 0 0 3
2016-10-18 0 0 0 3
2016-10-19 0 0 1 3
2016-10-20 0 0 0 2
2016-10-21 0 0 0 2
2016-10-22 0 0 0 2
2016-10-23 0 0 0 1
2016-10-24 0 0 0 2
2016-10-25 0 0 0 2
2016-10-26 4 4 0 3
2016-10-27 16 16 0 2
2016-10-28 11 11 0 5
2016-10-29 14 14 0 2
2016-10-30 1 1 0 2
2016-10-31 2 2 0 3
Settembre 2016 0 0 1 3
2016-09-01 0 0 1 2
2016-09-02 0 0 0 2
2016-09-03 0 0 0 1
2016-09-04 0 0 0 1
2016-09-05 0 0 0 2
2016-09-06 0 0 0 1
2016-09-07 0 0 0 1
2016-09-08 0 0 0 1
2016-09-09 0 0 0 2
2016-09-10 0 0 0 1
2016-09-11 0 0 0 1
2016-09-12 0 0 0 3
2016-09-13 0 0 0 1
2016-09-14 0 0 0 1
2016-09-15 0 0 0 1
2016-09-16 0 0 0 2
2016-09-17 0 0 0 2
2016-09-18 0 0 0 1
2016-09-19 0 0 0 2
2016-09-20 0 0 0 3
2016-09-21 0 0 0 1
2016-09-22 0 0 0 1
2016-09-23 0 0 0 1
2016-09-25 0 0 0 1
2016-09-27 0 0 0 2
2016-09-28 0 0 0 1
2016-09-29 0 0 0 2
2016-09-30 0 0 0 1
Agosto 2016 0 0 0 3
2016-08-01 0 0 0 2
2016-08-02 0 0 0 1
2016-08-03 0 0 0 2
2016-08-04 0 0 0 1
2016-08-05 0 0 0 2
2016-08-06 0 0 0 3
2016-08-07 0 0 0 1
2016-08-08 0 0 0 1
2016-08-09 0 0 0 2
2016-08-10 0 0 0 2
2016-08-11 0 0 0 3
2016-08-12 0 0 0 1
2016-08-13 0 0 0 1
2016-08-14 0 0 0 1
2016-08-15 0 0 0 2
2016-08-16 0 0 0 2
2016-08-17 0 0 0 1
2016-08-18 0 0 0 3
2016-08-19 0 0 0 1
2016-08-20 0 0 0 1
2016-08-21 0 0 0 2
2016-08-22 0 0 0 2
2016-08-23 0 0 0 3
2016-08-24 0 0 0 1
2016-08-25 0 0 0 1
2016-08-26 0 0 0 2
2016-08-27 0 0 0 1
2016-08-28 0 0 0 1
2016-08-29 0 0 0 1
2016-08-30 0 0 0 1
2016-08-31 0 0 0 1
Luglio 2016 0 0 0 3
2016-07-01 0 0 0 3
2016-07-02 0 0 0 2
2016-07-03 0 0 0 2
2016-07-04 0 0 0 1
2016-07-05 0 0 0 2
2016-07-06 0 0 0 2
2016-07-07 0 0 0 2
2016-07-08 0 0 0 2
2016-07-09 0 0 0 1
2016-07-10 0 0 0 3
2016-07-11 0 0 0 2
2016-07-12 0 0 0 2
2016-07-13 0 0 0 2
2016-07-14 0 0 0 2
2016-07-15 0 0 0 1
2016-07-16 0 0 0 3
2016-07-17 0 0 0 2
2016-07-18 0 0 0 2
2016-07-19 0 0 0 3
2016-07-20 0 0 0 2
2016-07-21 0 0 0 1
2016-07-22 0 0 0 1
2016-07-23 0 0 0 1
2016-07-24 0 0 0 1
2016-07-25 0 0 0 2
2016-07-26 0 0 0 2
2016-07-27 0 0 0 2
2016-07-28 0 0 0 1
2016-07-29 0 0 0 2
2016-07-30 0 0 0 2
2016-07-31 0 0 0 2
Giugno 2016 0 0 0 3
Maggio 2016 0 0 0 3
2016-05-01 0 0 0 1
2016-05-02 0 0 0 1
2016-05-03 0 0 0 2
2016-05-04 0 0 0 1
2016-05-05 0 0 0 2
2016-05-06 0 0 0 1
2016-05-07 0 0 0 2
2016-05-08 0 0 0 2
2016-05-09 0 0 0 1
2016-05-10 0 0 0 1
2016-05-11 0 0 0 2
2016-05-12 0 0 0 3
2016-05-13 0 0 0 1
2016-05-14 0 0 0 2
2016-05-15 0 0 0 1
2016-05-16 0 0 0 2
2016-05-17 0 0 0 2
2016-05-18 0 0 0 3
2016-05-19 0 0 0 2
2016-05-20 0 0 0 2
2016-05-21 0 0 0 3
2016-05-22 0 0 0 1
2016-05-23 0 0 0 2
2016-05-24 0 0 0 2
2016-05-25 0 0 0 2
2016-05-26 0 0 0 1
2016-05-27 0 0 0 1
2016-05-28 0 0 0 3
2016-05-29 0 0 0 2
2016-05-30 0 0 0 3
2016-05-31 0 0 0 2
Aprile 2016 0 0 0 4
2016-04-01 0 0 0 1
2016-04-02 0 0 0 2
2016-04-03 0 0 0 2
2016-04-04 0 0 0 2
2016-04-05 0 0 0 4
2016-04-06 0 0 0 2
2016-04-07 0 0 0 1
2016-04-08 0 0 0 1
2016-04-09 0 0 0 3
2016-04-10 0 0 0 2
2016-04-11 0 0 0 1
2016-04-12 0 0 0 3
2016-04-13 0 0 0 1
2016-04-14 0 0 0 2
2016-04-15 0 0 0 4
2016-04-16 0 0 0 2
2016-04-17 0 0 0 3
2016-04-18 0 0 0 1
2016-04-19 0 0 0 2
2016-04-20 0 0 0 1
2016-04-21 0 0 0 2
2016-04-22 0 0 0 2
2016-04-23 0 0 0 1
2016-04-24 0 0 0 2
2016-04-25 0 0 0 1
2016-04-26 0 0 0 1
2016-04-27 0 0 0 2
2016-04-28 0 0 0 1
2016-04-29 0 0 0 2
2016-04-30 0 0 0 1
Marzo 2016 112 112 1 6
2016-03-01 0 0 0 3
2016-03-02 0 0 0 1
2016-03-03 0 0 1 2
2016-03-04 112 112 0 3
2016-03-05 0 0 0 2
2016-03-06 0 0 0 2
2016-03-07 0 0 0 1
2016-03-08 0 0 0 1
2016-03-09 0 0 0 2
2016-03-10 0 0 0 2
2016-03-11 0 0 0 2
2016-03-12 0 0 0 2
2016-03-13 0 0 0 2
2016-03-14 0 0 0 1
2016-03-15 0 0 0 1
2016-03-16 0 0 0 1
2016-03-17 0 0 0 2
2016-03-18 0 0 0 6
2016-03-19 0 0 0 3
2016-03-20 0 0 0 1
2016-03-21 0 0 0 2
2016-03-22 0 0 0 2
2016-03-23 0 0 0 1
2016-03-24 0 0 0 2
2016-03-25 0 0 0 2
2016-03-26 0 0 0 2
2016-03-27 0 0 0 2
2016-03-28 0 0 0 1
2016-03-29 0 0 0 3
2016-03-30 0 0 0 2
2016-03-31 0 0 0 2
Febbraio 2016 0 0 0 12
2016-02-01 0 0 0 1
2016-02-02 0 0 0 2
2016-02-03 0 0 0 7
2016-02-04 0 0 0 12
2016-02-05 0 0 0 1
2016-02-06 0 0 0 2
2016-02-07 0 0 0 1
2016-02-09 0 0 0 1
2016-02-10 0 0 0 3
2016-02-11 0 0 0 2
2016-02-12 0 0 0 3
2016-02-13 0 0 0 1
2016-02-14 0 0 0 1
2016-02-15 0 0 0 2
2016-02-16 0 0 0 1
2016-02-17 0 0 0 1
2016-02-18 0 0 0 2
2016-02-19 0 0 0 2
2016-02-20 0 0 0 2
2016-02-21 0 0 0 1
2016-02-22 0 0 0 1
2016-02-23 0 0 0 1
2016-02-24 0 0 0 1
2016-02-25 0 0 0 3
2016-02-26 0 0 0 1
2016-02-27 0 0 0 1
2016-02-28 0 0 0 2
2016-02-29 0 0 0 3
Gennaio 2016 0 0 0 8
2016-01-01 0 0 0 1
2016-01-02 0 0 0 1
2016-01-03 0 0 0 1
2016-01-04 0 0 0 2
2016-01-05 0 0 0 2
2016-01-06 0 0 0 1
2016-01-07 0 0 0 8
2016-01-08 0 0 0 7
2016-01-09 0 0 0 2
2016-01-10 0 0 0 2
2016-01-11 0 0 0 1
2016-01-12 0 0 0 1
2016-01-13 0 0 0 4
2016-01-14 0 0 0 1
2016-01-15 0 0 0 3
2016-01-16 0 0 0 1
2016-01-17 0 0 0 2
2016-01-18 0 0 0 1
2016-01-19 0 0 0 2
2016-01-20 0 0 0 2
2016-01-21 0 0 0 2
2016-01-22 0 0 0 1
2016-01-23 0 0 0 2
2016-01-24 0 0 0 1
2016-01-25 0 0 0 1
2016-01-26 0 0 0 1
2016-01-27 0 0 0 1
2016-01-28 0 0 0 1
2016-01-29 0 0 0 1
2016-01-30 0 0 0 1
2016-01-31 0 0 0 1
* 2015 0 0 0 6
Dicembre 2015 0 0 0 3
2015-12-01 0 0 0 2
2015-12-02 0 0 0 1
2015-12-03 0 0 0 2
2015-12-04 0 0 0 3
2015-12-05 0 0 0 1
2015-12-06 0 0 0 1
2015-12-07 0 0 0 1
2015-12-08 0 0 0 1
2015-12-09 0 0 0 1
2015-12-10 0 0 0 2
2015-12-11 0 0 0 2
2015-12-12 0 0 0 1
2015-12-13 0 0 0 3
2015-12-14 0 0 0 1
2015-12-15 0 0 0 3
2015-12-16 0 0 0 1
2015-12-17 0 0 0 3
2015-12-18 0 0 0 1
2015-12-19 0 0 0 3
2015-12-20 0 0 0 2
2015-12-21 0 0 0 1
2015-12-22 0 0 0 1
2015-12-23 0 0 0 2
2015-12-24 0 0 0 2
2015-12-25 0 0 0 3
2015-12-26 0 0 0 2
2015-12-27 0 0 0 2
2015-12-28 0 0 0 2
2015-12-29 0 0 0 1
2015-12-30 0 0 0 1
2015-12-31 0 0 0 2
Novembre 2015 0 0 0 5
2015-11-01 0 0 0 1
2015-11-03 0 0 0 4
2015-11-04 0 0 0 2
2015-11-05 0 0 0 2
2015-11-06 0 0 0 5
2015-11-07 0 0 0 2
2015-11-08 0 0 0 2
2015-11-09 0 0 0 2
2015-11-10 0 0 0 1
2015-11-11 0 0 0 1
2015-11-12 0 0 0 2
2015-11-13 0 0 0 4
2015-11-14 0 0 0 1
2015-11-15 0 0 0 2
2015-11-16 0 0 0 1
2015-11-17 0 0 0 2
2015-11-18 0 0 0 2
2015-11-19 0 0 0 1
2015-11-20 0 0 0 1
2015-11-21 0 0 0 1
2015-11-22 0 0 0 1
2015-11-23 0 0 0 1
2015-11-24 0 0 0 2
2015-11-25 0 0 0 2
2015-11-26 0 0 0 1
2015-11-27 0 0 0 1
2015-11-28 0 0 0 2
2015-11-29 0 0 0 1
2015-11-30 0 0 0 1
Ottobre 2015 0 0 0 5
Settembre 2015 0 0 0 5
2015-09-02 0 0 0 3
2015-09-03 0 0 0 1
2015-09-04 0 0 0 1
2015-09-05 0 0 0 1
2015-09-06 0 0 0 1
2015-09-07 0 0 0 5
2015-09-08 0 0 0 2
2015-09-10 0 0 0 1
2015-09-11 0 0 0 4
2015-09-13 0 0 0 1
2015-09-14 0 0 0 1
2015-09-16 0 0 0 1
2015-09-17 0 0 0 1
2015-09-18 0 0 0 1
2015-09-19 0 0 0 2
2015-09-20 0 0 0 2
2015-09-21 0 0 0 2
2015-09-22 0 0 0 1
2015-09-23 0 0 0 2
2015-09-24 0 0 0 2
2015-09-25 0 0 0 2
2015-09-26 0 0 0 2
2015-09-27 0 0 0 3
2015-09-28 0 0 0 1
2015-09-30 0 0 0 1
Agosto 2015 0 0 0 2
2015-08-01 0 0 0 1
2015-08-02 0 0 0 1
2015-08-04 0 0 0 2
2015-08-06 0 0 0 2
2015-08-07 0 0 0 1
2015-08-08 0 0 0 1
2015-08-10 0 0 0 1
2015-08-12 0 0 0 1
2015-08-13 0 0 0 1
2015-08-14 0 0 0 1
2015-08-15 0 0 0 1
2015-08-16 0 0 0 1
2015-08-19 0 0 0 1
2015-08-20 0 0 0 1
2015-08-21 0 0 0 2
2015-08-23 0 0 0 2
2015-08-24 0 0 0 1
2015-08-25 0 0 0 1
2015-08-26 0 0 0 1
2015-08-27 0 0 0 1
2015-08-28 0 0 0 1
2015-08-29 0 0 0 1
2015-08-30 0 0 0 1
2015-08-31 0 0 0 1
Luglio 2015 0 0 0 4
2015-07-01 0 0 0 2
2015-07-03 0 0 0 1
2015-07-04 0 0 0 1
2015-07-05 0 0 0 2
2015-07-06 0 0 0 1
2015-07-07 0 0 0 1
2015-07-09 0 0 0 1
2015-07-10 0 0 0 1
2015-07-11 0 0 0 1
2015-07-12 0 0 0 1
2015-07-13 0 0 0 2
2015-07-14 0 0 0 2
2015-07-15 0 0 0 2
2015-07-16 0 0 0 1
2015-07-18 0 0 0 4
2015-07-20 0 0 0 1
2015-07-21 0 0 0 3
2015-07-23 0 0 0 1
2015-07-24 0 0 0 3
2015-07-25 0 0 0 1
2015-07-26 0 0 0 2
2015-07-30 0 0 0 1
2015-07-31 0 0 0 1
Giugno 2015 0 0 0 3
2015-06-01 0 0 0 1
2015-06-02 0 0 0 1
2015-06-03 0 0 0 2
2015-06-04 0 0 0 1
2015-06-06 0 0 0 2
2015-06-07 0 0 0 1
2015-06-08 0 0 0 1
2015-06-10 0 0 0 1
2015-06-11 0 0 0 1
2015-06-12 0 0 0 2
2015-06-13 0 0 0 1
2015-06-14 0 0 0 2
2015-06-15 0 0 0 1
2015-06-18 0 0 0 1
2015-06-20 0 0 0 2
2015-06-22 0 0 0 1
2015-06-23 0 0 0 1
2015-06-24 0 0 0 1
2015-06-25 0 0 0 1
2015-06-26 0 0 0 1
2015-06-27 0 0 0 1
2015-06-28 0 0 0 1
2015-06-29 0 0 0 1
2015-06-30 0 0 0 3
Maggio 2015 0 0 0 2
Aprile 2015 0 0 0 6
2015-04-01 0 0 0 1
2015-04-03 0 0 0 6
2015-04-04 0 0 0 1
2015-04-05 0 0 0 1
2015-04-06 0 0 0 1
2015-04-07 0 0 0 1
2015-04-09 0 0 0 1
2015-04-10 0 0 0 1
2015-04-12 0 0 0 1
2015-04-13 0 0 0 1
2015-04-14 0 0 0 2
2015-04-15 0 0 0 1
2015-04-16 0 0 0 1
2015-04-17 0 0 0 1
2015-04-19 0 0 0 1
2015-04-20 0 0 0 1
2015-04-22 0 0 0 1
2015-04-23 0 0 0 1
2015-04-24 0 0 0 1
2015-04-25 0 0 0 1
2015-04-26 0 0 0 2
2015-04-27 0 0 0 1
2015-04-28 0 0 0 1
2015-04-29 0 0 0 1
2015-04-30 0 0 0 2
Marzo 2015 0 0 0 2
2015-03-03 0 0 0 2
2015-03-04 0 0 0 2
2015-03-05 0 0 0 2
2015-03-07 0 0 0 1
2015-03-08 0 0 0 2
2015-03-09 0 0 0 1
2015-03-10 0 0 0 1
2015-03-11 0 0 0 1
2015-03-12 0 0 0 1
2015-03-13 0 0 0 1
2015-03-14 0 0 0 1
2015-03-16 0 0 0 1
2015-03-17 0 0 0 1
2015-03-18 0 0 0 1
2015-03-19 0 0 0 1
2015-03-20 0 0 0 1
2015-03-21 0 0 0 1
2015-03-22 0 0 0 1
2015-03-23 0 0 0 1
2015-03-24 0 0 0 2
2015-03-26 0 0 0 1
2015-03-27 0 0 0 1
2015-03-28 0 0 0 1
2015-03-29 0 0 0 1
2015-03-30 0 0 0 1
2015-03-31 0 0 0 1
Febbraio 2015 0 0 0 3
Gennaio 2015 0 0 0 3
2015-01-01 0 0 0 1
2015-01-02 0 0 0 1
2015-01-03 0 0 0 1
2015-01-04 0 0 0 2
2015-01-05 0 0 0 1
2015-01-07 0 0 0 1
2015-01-08 0 0 0 2
2015-01-09 0 0 0 1
2015-01-10 0 0 0 1
2015-01-11 0 0 0 1
2015-01-13 0 0 0 1
2015-01-14 0 0 0 1
2015-01-15 0 0 0 1
2015-01-16 0 0 0 1
2015-01-17 0 0 0 1
2015-01-18 0 0 0 1
2015-01-19 0 0 0 1
2015-01-20 0 0 0 1
2015-01-21 0 0 0 1
2015-01-22 0 0 0 1
2015-01-23 0 0 0 3
2015-01-24 0 0 0 1
2015-01-25 0 0 0 2
2015-01-26 0 0 0 2
2015-01-27 0 0 0 1
2015-01-28 0 0 0 1
2015-01-30 0 0 0 1
2015-01-31 0 0 0 1
* 2014 0 0 0 4
Dicembre 2014 0 0 0 2
2014-12-01 0 0 0 1
2014-12-02 0 0 0 1
2014-12-03 0 0 0 1
2014-12-04 0 0 0 1
2014-12-05 0 0 0 1
2014-12-08 0 0 0 1
2014-12-09 0 0 0 1
2014-12-10 0 0 0 1
2014-12-13 0 0 0 1
2014-12-14 0 0 0 1
2014-12-15 0 0 0 2
2014-12-16 0 0 0 1
2014-12-17 0 0 0 1
2014-12-18 0 0 0 1
2014-12-19 0 0 0 1
2014-12-20 0 0 0 1
2014-12-21 0 0 0 1
2014-12-22 0 0 0 1
2014-12-24 0 0 0 1
2014-12-25 0 0 0 1
2014-12-26 0 0 0 1
2014-12-27 0 0 0 1
2014-12-30 0 0 0 1
Novembre 2014 0 0 0 3
2014-11-01 0 0 0 1
2014-11-03 0 0 0 1
2014-11-04 0 0 0 1
2014-11-05 0 0 0 1
2014-11-06 0 0 0 1
2014-11-07 0 0 0 1
2014-11-11 0 0 0 1
2014-11-12 0 0 0 1
2014-11-13 0 0 0 1
2014-11-15 0 0 0 3
2014-11-16 0 0 0 2
2014-11-18 0 0 0 2
2014-11-19 0 0 0 1
2014-11-21 0 0 0 1
2014-11-22 0 0 0 1
2014-11-23 0 0 0 1
2014-11-24 0 0 0 1
2014-11-25 0 0 0 2
2014-11-26 0 0 0 2
2014-11-27 0 0 0 3
2014-11-28 0 0 0 1
2014-11-29 0 0 0 1
Ottobre 2014 0 0 0 4
Settembre 2014 0 0 0 4
2014-09-01 0 0 0 1
2014-09-03 0 0 0 2
2014-09-04 0 0 0 1
2014-09-05 0 0 0 1
2014-09-07 0 0 0 1
2014-09-08 0 0 0 3
2014-09-10 0 0 0 1
2014-09-11 0 0 0 4
2014-09-12 0 0 0 1
2014-09-14 0 0 0 1
2014-09-15 0 0 0 3
2014-09-16 0 0 0 2
2014-09-19 0 0 0 1
2014-09-20 0 0 0 1
2014-09-21 0 0 0 1
2014-09-23 0 0 0 1
2014-09-24 0 0 0 1
2014-09-26 0 0 0 3
2014-09-27 0 0 0 1
2014-09-28 0 0 0 1
Agosto 2014 0 0 0 3
Luglio 2014 0 0 0 3
Giugno 2014 0 0 0 3
2014-06-01 0 0 0 1
2014-06-02 0 0 0 2
2014-06-03 0 0 0 2
2014-06-04 0 0 0 1
2014-06-05 0 0 0 3
2014-06-06 0 0 0 1
2014-06-07 0 0 0 1
2014-06-08 0 0 0 2
2014-06-09 0 0 0 1
2014-06-10 0 0 0 2
2014-06-11 0 0 0 1
2014-06-12 0 0 0 1
2014-06-13 0 0 0 1
2014-06-14 0 0 0 1
2014-06-15 0 0 0 3
2014-06-16 0 0 0 1
2014-06-17 0 0 0 1
2014-06-18 0 0 0 1
2014-06-19 0 0 0 1
2014-06-20 0 0 0 1
2014-06-21 0 0 0 1
2014-06-22 0 0 0 1
2014-06-23 0 0 0 1
2014-06-24 0 0 0 2
2014-06-25 0 0 0 2
2014-06-26 0 0 0 1
2014-06-27 0 0 0 1
2014-06-29 0 0 0 2
2014-06-30 0 0 0 1
Maggio 2014 0 0 0 4
Aprile 2014 0 0 0 3
2014-04-02 0 0 0 1
2014-04-03 0 0 0 1
2014-04-04 0 0 0 1
2014-04-05 0 0 0 1
2014-04-06 0 0 0 3
2014-04-07 0 0 0 1
2014-04-08 0 0 0 1
2014-04-10 0 0 0 1
2014-04-13 0 0 0 1
2014-04-14 0 0 0 1
2014-04-15 0 0 0 1
2014-04-16 0 0 0 1
2014-04-17 0 0 0 1
2014-04-18 0 0 0 1
2014-04-19 0 0 0 2
2014-04-20 0 0 0 2
2014-04-21 0 0 0 1
2014-04-22 0 0 0 1
2014-04-23 0 0 0 2
2014-04-24 0 0 0 1
2014-04-25 0 0 0 1
2014-04-26 0 0 0 1
2014-04-27 0 0 0 2
2014-04-28 0 0 0 1
2014-04-29 0 0 0 1
2014-04-30 0 0 0 1
Marzo 2014 0 0 0 3
2014-03-01 0 0 0 1
2014-03-02 0 0 0 1
2014-03-03 0 0 0 1
2014-03-04 0 0 0 1
2014-03-07 0 0 0 2
2014-03-08 0 0 0 1
2014-03-09 0 0 0 1
2014-03-15 0 0 0 1
2014-03-17 0 0 0 1
2014-03-19 0 0 0 1
2014-03-21 0 0 0 1
2014-03-22 0 0 0 1
2014-03-23 0 0 0 1
2014-03-27 0 0 0 1
2014-03-28 0 0 0 3
2014-03-29 0 0 0 2
2014-03-30 0 0 0 1
Febbraio 2014 0 0 0 2
Gennaio 2014 0 0 0 4
* 2013 19 19 13 3
Dicembre 2013 0 0 0 3
2013-12-01 0 0 0 2
2013-12-04 0 0 0 3
2013-12-05 0 0 0 1
2013-12-06 0 0 0 1
2013-12-07 0 0 0 1
2013-12-08 0 0 0 1
2013-12-09 0 0 0 1
2013-12-10 0 0 0 1
2013-12-11 0 0 0 1
2013-12-12 0 0 0 2
2013-12-13 0 0 0 1
2013-12-14 0 0 0 1
2013-12-15 0 0 0 2
2013-12-16 0 0 0 1
2013-12-17 0 0 0 2
2013-12-18 0 0 0 1
2013-12-21 0 0 0 1
2013-12-22 0 0 0 1
2013-12-23 0 0 0 1
2013-12-24 0 0 0 1
2013-12-25 0 0 0 1
2013-12-27 0 0 0 2
2013-12-28 0 0 0 1
2013-12-31 0 0 0 2
Novembre 2013 0 0 0 2
2013-11-01 0 0 0 1
2013-11-03 0 0 0 1
2013-11-04 0 0 0 2
2013-11-05 0 0 0 1
2013-11-07 0 0 0 2
2013-11-08 0 0 0 1
2013-11-09 0 0 0 1
2013-11-10 0 0 0 1
2013-11-11 0 0 0 2
2013-11-12 0 0 0 1
2013-11-13 0 0 0 1
2013-11-15 0 0 0 1
2013-11-18 0 0 0 1
2013-11-19 0 0 0 1
2013-11-21 0 0 0 1
2013-11-22 0 0 0 1
2013-11-23 0 0 0 1
2013-11-24 0 0 0 1
2013-11-26 0 0 0 1
2013-11-27 0 0 0 1
2013-11-28 0 0 0 1
2013-11-29 0 0 0 1
2013-11-30 0 0 0 1
Ottobre 2013 0 0 0 2
2013-10-01 0 0 0 2
2013-10-02 0 0 0 2
2013-10-03 0 0 0 1
2013-10-05 0 0 0 1
2013-10-06 0 0 0 1
2013-10-07 0 0 0 1
2013-10-08 0 0 0 2
2013-10-09 0 0 0 2
2013-10-10 0 0 0 2
2013-10-11 0 0 0 1
2013-10-12 0 0 0 1
2013-10-13 0 0 0 1
2013-10-14 0 0 0 1
2013-10-15 0 0 0 1
2013-10-16 0 0 0 1
2013-10-17 0 0 0 1
2013-10-19 0 0 0 1
2013-10-20 0 0 0 1
2013-10-22 0 0 0 1
2013-10-23 0 0 0 1
2013-10-24 0 0 0 2
2013-10-25 0 0 0 1
2013-10-26 0 0 0 1
2013-10-27 0 0 0 1
2013-10-28 0 0 0 1
2013-10-29 0 0 0 1
2013-10-30 0 0 0 1
2013-10-31 0 0 0 1
Settembre 2013 0 0 0 2
2013-09-02 0 0 0 1
2013-09-03 0 0 0 1
2013-09-04 0 0 0 1
2013-09-05 0 0 0 1
2013-09-06 0 0 0 1
2013-09-07 0 0 0 1
2013-09-08 0 0 0 1
2013-09-10 0 0 0 2
2013-09-11 0 0 0 1
2013-09-12 0 0 0 1
2013-09-13 0 0 0 1
2013-09-15 0 0 0 1
2013-09-16 0 0 0 2
2013-09-17 0 0 0 1
2013-09-18 0 0 0 1
2013-09-21 0 0 0 1
2013-09-22 0 0 0 1
2013-09-23 0 0 0 1
2013-09-24 0 0 0 1
2013-09-25 0 0 0 2
2013-09-27 0 0 0 1
2013-09-29 0 0 0 1
2013-09-30 0 0 0 1
Agosto 2013 0 0 0 2
Luglio 2013 15 15 7 3
2013-07-01 0 0 0 2
2013-07-02 1 1 6 3
2013-07-03 0 0 0 2
2013-07-04 0 0 0 1
2013-07-05 0 0 0 1
2013-07-06 0 0 0 2
2013-07-07 0 0 0 1
2013-07-08 0 0 0 2
2013-07-09 0 0 0 1
2013-07-10 0 0 0 2
2013-07-11 0 0 0 2
2013-07-12 0 0 0 2
2013-07-13 0 0 0 2
2013-07-14 0 0 0 1
2013-07-15 0 0 0 1
2013-07-16 0 0 0 1
2013-07-17 0 0 0 1
2013-07-18 0 0 0 2
2013-07-19 2 2 1 3
2013-07-20 5 5 0 2
2013-07-21 5 5 0 1
2013-07-22 2 2 0 1
2013-07-23 0 0 0 2
2013-07-24 0 0 0 1
2013-07-25 0 0 0 1
2013-07-26 0 0 0 2
2013-07-27 0 0 0 2
2013-07-28 0 0 0 1
2013-07-29 0 0 0 1
2013-07-30 0 0 0 1
2013-07-31 0 0 0 1
Giugno 2013 4 4 6 3